Time;durP1;ratioP1;P1;durP2;ratioP2;P2;SDS_P1;SDS_P2;PMS_P1;PMS_P2;Temp;Humidity;BMP_temperature;BMP_pressure;BME280_temperature;BME280_humidity;BME280_pressure;Samples;Min_cycle;Max_cycle;Signal;HPM_P1;HPM_P2
2023/01/10 00:02:20;;;;;;;26.60;2.88;;;;;;;6.96;100.00;101112.72;5032208;28;20458;-41
2023/01/10 00:04:45;;;;;;;26.48;3.03;;;;;;;6.97;100.00;101106.34;5037584;28;20049;-40
2023/01/10 00:07:10;;;;;;;35.33;2.88;;;;;;;7.00;100.00;101107.88;5039546;28;20055;-39
2023/01/10 00:09:36;;;;;;;23.58;2.55;;;;;;;7.01;100.00;101109.59;5040946;28;20044;-41
2023/01/10 00:14:45;;;;;;;24.25;2.40;;;;;;;6.98;100.00;101116.09;5042222;28;20087;-40
2023/01/10 00:17:10;;;;;;;25.52;2.90;;;;;;;7.00;100.00;101115.91;5038005;28;20060;-40
2023/01/10 00:19:35;;;;;;;33.63;3.53;;;;;;;6.98;100.00;101121.44;5037551;28;20092;-40
2023/01/10 00:22:07;;;;;;;37.00;3.92;;;;;;;6.99;100.00;101123.09;5044876;28;20117;-40
2023/01/10 00:24:33;;;;;;;27.50;3.75;;;;;;;6.99;100.00;101135.66;5040259;28;20033;-41
2023/01/10 00:26:59;;;;;;;30.73;3.35;;;;;;;6.97;100.00;101141.13;5036802;28;20373;-40
2023/01/10 00:29:26;;;;;;;38.08;3.38;;;;;;;7.00;100.00;101137.31;5035589;28;20029;-41
2023/01/10 00:31:52;;;;;;;29.42;3.78;;;;;;;7.00;100.00;101145.34;5030986;28;20060;-40
2023/01/10 00:34:18;;;;;;;28.98;3.30;;;;;;;7.01;100.00;101142.53;5045467;28;20555;-40
2023/01/10 00:36:46;;;;;;;36.03;4.07;;;;;;;7.01;100.00;101155.06;5031459;28;20113;-40
2023/01/10 00:39:11;;;;;;;27.80;3.15;;;;;;;7.04;100.00;101146.75;5036793;28;20520;-40
2023/01/10 00:44:21;;;;;;;31.33;3.30;;;;;;;7.04;100.00;101163.63;5035046;28;20044;-40
2023/01/10 00:46:46;;;;;;;28.55;2.95;;;;;;;7.04;100.00;101162.81;5033261;28;20151;-40
2023/01/10 00:49:14;;;;;;;31.75;3.75;;;;;;;7.02;100.00;101168.28;5035430;28;20029;-40
2023/01/10 00:51:39;;;;;;;30.20;4.20;;;;;;;7.03;100.00;101178.03;5029462;28;20171;-40
2023/01/10 00:54:04;;;;;;;25.10;2.80;;;;;;;7.06;100.00;101167.97;5039031;28;20486;-40
2023/01/10 00:56:30;;;;;;;25.75;3.42;;;;;;;7.05;100.00;101164.47;5030863;28;20085;-40
2023/01/10 00:58:55;;;;;;;38.65;4.63;;;;;;;7.03;100.00;101169.16;5036162;28;20029;-39
2023/01/10 01:01:21;;;;;;;35.40;3.83;;;;;;;7.04;100.00;101174.34;5037515;28;20036;-40
2023/01/10 01:03:46;;;;;;;40.30;4.00;;;;;;;7.03;100.00;101175.34;5047279;28;20112;-40
2023/01/10 01:06:11;;;;;;;40.45;4.18;;;;;;;7.04;100.00;101184.22;5044760;28;20051;-40
2023/01/10 01:08:36;;;;;;;31.58;3.40;;;;;;;7.06;100.00;101178.69;5033919;28;20049;-40
2023/01/10 01:11:02;;;;;;;40.45;3.72;;;;;;;7.03;100.00;101180.69;5035566;28;20401;-42
2023/01/10 01:13:27;;;;;;;43.28;4.07;;;;;;;7.04;100.00;101194.91;5034216;28;20108;-41
2023/01/10 01:15:56;;;;;;;30.80;3.08;;;;;;;7.04;100.00;101184.22;5030768;28;20121;-41
2023/01/10 01:18:22;;;;;;;31.83;3.78;;;;;;;7.06;100.00;101198.28;5034058;28;20464;-39
2023/01/10 01:20:52;;;;;;;41.30;4.07;;;;;;;7.05;100.00;101191.22;5039535;28;20037;-39
2023/01/10 01:23:17;;;;;;;44.30;5.82;;;;;;;7.06;100.00;101202.78;5042910;28;20477;-40
2023/01/10 01:25:43;;;;;;;35.53;3.85;;;;;;;7.06;100.00;101200.97;5014855;28;20059;-40
2023/01/10 01:28:11;;;;;;;35.22;4.50;;;;;;;7.06;100.00;101206.31;5030715;28;20417;-39
2023/01/10 01:30:36;;;;;;;;;;;;;;;7.08;100.00;101217.69;5040286;28;20154;-40
2023/01/10 01:33:01;;;;;;;30.48;4.50;;;;;;;7.09;100.00;101211.38;5038357;28;19932;-39
2023/01/10 01:35:27;;;;;;;36.30;3.90;;;;;;;7.10;100.00;101215.72;5036509;28;20029;-39
2023/01/10 01:37:52;;;;;;;47.88;4.63;;;;;;;7.11;100.00;101213.88;5032229;28;20524;-40
2023/01/10 01:40:20;;;;;;;40.85;5.20;;;;;;;7.09;100.00;101219.41;5043364;28;20072;-41
2023/01/10 01:42:46;;;;;;;35.60;3.97;;;;;;;7.10;100.00;101225.59;5030228;28;20272;-40
2023/01/10 01:45:20;;;;;;;32.75;3.92;;;;;;;7.10;100.00;101234.44;5030863;28;20480;-40
2023/01/10 01:47:51;;;;;;;39.50;4.43;;;;;;;7.08;100.00;101228.41;5030445;28;20122;-40
2023/01/10 01:50:24;;;;;;;57.05;5.20;;;;;;;7.09;100.00;101234.63;5030637;28;20032;-40
2023/01/10 01:52:54;;;;;;;43.30;4.13;;;;;;;7.11;100.00;101233.47;5038651;28;20040;-40
2023/01/10 01:55:20;;;;;;;34.97;3.90;;;;;;;7.12;100.00;101245.03;5041614;28;20024;-40
2023/01/10 01:57:47;;;;;;;46.38;6.22;;;;;;;7.09;100.00;101240.81;5041491;28;20037;-40
2023/01/10 02:00:13;;;;;;;37.80;4.35;;;;;;;7.11;100.00;101254.03;5037144;28;20068;-40
2023/01/10 02:02:47;;;;;;;43.80;5.03;;;;;;;7.13;100.00;101244.84;5031717;28;20039;-40
2023/01/10 02:05:14;;;;;;;32.45;3.65;;;;;;;7.11;100.00;101248.66;5045605;28;20035;-40
2023/01/10 02:07:41;;;;;;;42.70;4.90;;;;;;;7.11;100.00;101251.34;5032858;28;20036;-40
2023/01/10 02:10:22;;;;;;;32.73;4.23;;;;;;;7.10;100.00;101247.84;5031676;28;20021;-38
2023/01/10 02:12:49;;;;;;;34.10;4.43;;;;;;;7.13;100.00;101247.53;5031873;28;20073;-40
2023/01/10 02:15:15;;;;;;;36.47;3.92;;;;;;;7.12;100.00;101251.22;5032065;28;20033;-40
2023/01/10 02:17:40;;;;;;;34.47;3.75;;;;;;;7.10;100.00;101255.88;5033036;28;20038;-40
2023/01/10 02:20:11;;;;;;;36.72;4.18;;;;;;;7.08;100.00;101260.50;5050606;28;20021;-40
2023/01/10 02:23:14;;;;;;;38.75;3.70;;;;;;;7.07;100.00;101258.84;5032807;28;20033;-39
2023/01/10 02:26:02;;;;;;;45.75;4.28;;;;;;;7.09;100.00;101256.88;5041926;28;20029;-40
2023/01/10 02:28:49;;;;;;;34.47;4.35;;;;;;;7.10;100.00;101255.88;5041323;28;20152;-40
2023/01/10 02:31:29;;;;;;;31.13;3.90;;;;;;;7.11;100.00;101256.69;5041548;28;20030;-41
2023/01/10 02:34:44;;;;;;;38.33;4.43;;;;;;;7.10;100.00;101271.91;5033755;28;20049;-40
2023/01/10 02:37:17;;;;;;;41.00;3.53;;;;;;;7.13;100.00;101279.66;5003861;28;20565;-41
2023/01/10 02:39:54;;;;;;;35.90;3.65;;;;;;;7.14;100.00;101281.34;5032797;28;20037;-40
2023/01/10 02:42:38;;;;;;;40.33;4.80;;;;;;;7.12;100.00;101283.31;5031924;28;20156;-40
2023/01/10 02:45:09;;;;;;;41.85;3.90;;;;;;;7.15;100.00;101291.06;5047635;28;20047;-40
2023/01/10 02:47:39;;;;;;;29.92;3.55;;;;;;;7.15;100.00;101299.09;5040815;28;20029;-41
2023/01/10 02:50:39;;;;;;;29.85;4.13;;;;;;;7.12;100.00;101304.75;5033629;28;20508;-40
2023/01/10 02:53:15;;;;;;;53.15;3.42;;;;;;;7.11;100.00;101289.69;5021384;28;20041;-40
2023/01/10 02:55:58;;;;;;;33.63;3.75;;;;;;;7.10;100.00;101287.16;5033652;28;20030;-39
2023/01/10 02:58:42;;;;;;;47.38;4.28;;;;;;;7.06;100.00;101294.63;5031646;28;20075;-40
2023/01/10 03:01:31;;;;;;;42.03;3.33;;;;;;;7.05;100.00;101292.94;5047889;28;20068;-40
2023/01/10 03:04:08;;;;;;;23.50;3.03;;;;;;;7.08;100.00;101303.34;5042184;28;20037;-40
2023/01/10 03:06:40;;;;;;;39.75;3.42;;;;;;;7.05;100.00;101298.28;5043412;28;20064;-40
2023/01/10 03:09:20;;;;;;;33.45;4.10;;;;;;;7.02;100.00;101299.41;5041968;28;20065;-40
2023/01/10 03:11:46;;;;;;;39.47;4.28;;;;;;;6.99;100.00;101313.09;5033172;28;20038;-40
2023/01/10 03:14:15;;;;;;;30.17;3.20;;;;;;;6.99;100.00;101302.41;5030907;28;20033;-40
2023/01/10 03:16:45;;;;;;;47.92;5.20;;;;;;;6.99;100.00;101307.75;5035399;28;20422;-40
2023/01/10 03:19:12;;;;;;;35.70;4.43;;;;;;;6.97;100.00;101311.56;5034748;28;20064;-41
2023/01/10 03:21:39;;;;;;;27.13;2.83;;;;;;;6.93;100.00;101302.16;5031494;28;20021;-37
2023/01/10 03:24:10;;;;;;;38.75;5.22;;;;;;;6.91;100.00;101304.13;5032216;28;20055;-40
2023/01/10 03:27:10;;;;;;;37.25;4.85;;;;;;;6.84;100.00;101311.88;5032178;28;20041;-38
2023/01/10 03:29:53;;;;;;;41.35;4.47;;;;;;;6.81;100.00;101312.19;5039578;28;20125;-38
2023/01/10 03:32:20;;;;;;;51.97;4.90;;;;;;;6.76;100.00;101312.63;5035391;28;20032;-40
2023/01/10 03:34:46;;;;;;;29.20;3.60;;;;;;;6.71;100.00;101322.06;5037990;28;20037;-40
2023/01/10 03:37:37;;;;;;;44.67;4.45;;;;;;;6.68;100.00;101317.84;5022296;28;20033;-40
2023/01/10 03:40:21;;;;;;;42.03;4.32;;;;;;;6.62;100.00;101318.44;5034823;28;20559;-39
2023/01/10 03:46:00;;;;;;;34.63;3.55;;;;;;;6.56;100.00;101329.72;5037033;28;20072;-40
2023/01/10 03:48:32;;;;;;;34.03;4.55;;;;;;;6.54;100.00;101337.03;5033304;28;20061;-40
2023/01/10 03:50:59;;;;;;;45.15;3.63;;;;;;;6.47;100.00;101335.91;5031516;28;20025;-40
2023/01/10 03:53:24;;;;;;;26.63;3.63;;;;;;;6.45;100.00;101327.19;5033717;28;20037;-40
2023/01/10 03:55:49;;;;;;;43.03;5.07;;;;;;;6.41;100.00;101341.84;5026276;28;20392;-39
2023/01/10 03:58:16;;;;;;;33.90;3.67;;;;;;;6.36;100.00;101343.09;5050559;28;20036;-39
2023/01/10 04:00:41;;;;;;;39.95;3.80;;;;;;;6.31;100.00;101340.00;5033472;28;20076;-39
2023/01/10 04:03:08;;;;;;;53.97;5.60;;;;;;;6.30;100.00;101335.66;5043792;28;20126;-39
2023/01/10 04:05:34;;;;;;;51.88;4.75;;;;;;;6.28;100.00;101337.63;5043054;28;20037;-39
2023/01/10 04:07:59;;;;;;;28.20;4.45;;;;;;;6.28;100.00;101337.63;5031054;28;20348;-39
2023/01/10 04:10:25;;;;;;;40.63;4.10;;;;;;;6.24;100.00;101338.91;5031165;28;20057;-39
2023/01/10 04:12:51;;;;;;;36.72;3.63;;;;;;;6.22;100.00;101350.72;5041507;28;20069;-39
2023/01/10 04:15:17;;;;;;;38.10;3.72;;;;;;;6.20;100.00;101345.50;5030657;28;20060;-39
2023/01/10 04:17:42;;;;;;;40.75;4.60;;;;;;;6.18;100.00;101355.50;5045643;28;20059;-40
2023/01/10 04:20:09;;;;;;;40.50;4.40;;;;;;;6.17;100.00;101369.00;5042983;28;20060;-39
2023/01/10 04:22:35;;;;;;;37.83;4.93;;;;;;;6.14;100.00;101378.16;5037588;28;20039;-39
2023/01/10 04:25:00;;;;;;;45.38;4.53;;;;;;;6.15;100.00;101369.13;5030982;28;20047;-39
2023/01/10 04:27:26;;;;;;;32.95;3.45;;;;;;;6.10;100.00;101364.22;5043304;28;20108;-38
2023/01/10 04:29:52;;;;;;;39.03;4.57;;;;;;;6.12;100.00;101364.06;5042264;28;20543;-39
2023/01/10 04:32:17;;;;;;;32.67;4.38;;;;;;;6.08;100.00;101363.53;5036659;28;20108;-39
2023/01/10 04:34:42;;;;;;;41.63;4.38;;;;;;;6.05;100.00;101371.78;5036492;28;20056;-39
2023/01/10 04:37:08;;;;;;;41.65;4.60;;;;;;;6.03;100.00;101364.91;5047967;28;20021;-40
2023/01/10 04:39:33;;;;;;;32.33;3.42;;;;;;;6.01;100.00;101381.09;5035613;28;20033;-39
2023/01/10 04:41:58;;;;;;;48.80;3.85;;;;;;;6.00;100.00;101391.91;5038940;28;20048;-40
2023/01/10 04:44:24;;;;;;;39.17;5.32;;;;;;;6.00;100.00;101399.91;5030489;28;20033;-40
2023/01/10 04:46:49;;;;;;;47.28;4.07;;;;;;;5.97;100.00;101411.72;5030949;28;20029;-40
2023/01/10 04:49:14;;;;;;;32.08;3.13;;;;;;;5.97;100.00;101418.91;5030854;28;20091;-40
2023/01/10 04:51:40;;;;;;;39.97;4.50;;;;;;;5.97;100.00;101426.91;5036388;28;20021;-40
2023/01/10 04:54:05;;;;;;;47.30;4.45;;;;;;;5.94;100.00;101426.22;5047725;28;20105;-40
2023/01/10 04:56:30;;;;;;;43.03;4.78;;;;;;;5.94;100.00;101431.53;5033046;28;20037;-39
2023/01/10 04:58:56;;;;;;;46.40;5.35;;;;;;;5.90;100.00;101427.44;5049128;28;20484;-40
2023/01/10 05:01:23;;;;;;;40.83;4.55;;;;;;;5.89;100.00;101416.88;5039327;28;20037;-40
2023/01/10 05:03:50;;;;;;;30.48;3.92;;;;;;;5.88;100.00;101426.72;5034203;28;20065;-40
2023/01/10 05:06:16;;;;;;;32.33;4.28;;;;;;;5.86;100.00;101428.69;5029650;28;20025;-37
2023/01/10 05:08:42;;;;;;;47.47;4.55;;;;;;;5.86;100.00;101423.34;5050341;28;20116;-39
2023/01/10 05:11:07;;;;;;;42.85;5.82;;;;;;;5.83;100.00;101436.13;5043411;28;20491;-40
2023/01/10 05:13:33;;;;;;;45.35;5.43;;;;;;;5.82;100.00;101429.97;5030034;28;20381;-39
2023/01/10 05:15:58;;;;;;;41.28;4.75;;;;;;;5.81;100.00;101436.25;5044777;28;20033;-40
2023/01/10 05:18:25;;;;;;;42.22;4.60;;;;;;;5.81;100.00;101430.91;5034969;28;20021;-40
2023/01/10 05:20:51;;;;;;;43.13;5.35;;;;;;;5.79;100.00;101443.56;5035259;28;20025;-40
2023/01/10 05:23:16;;;;;;;30.58;4.13;;;;;;;5.78;100.00;101452.56;5036920;28;20031;-40
2023/01/10 05:25:42;;;;;;;50.08;5.30;;;;;;;5.76;100.00;101465.22;5029423;28;20022;-40
2023/01/10 05:28:07;;;;;;;36.95;3.67;;;;;;;5.73;100.00;101470.81;5030872;28;20087;-40
2023/01/10 05:30:33;;;;;;;33.97;4.25;;;;;;;5.71;100.00;101462.09;5038455;28;20522;-41
2023/01/10 05:32:58;;;;;;;37.10;5.13;;;;;;;5.74;100.00;101469.88;5033381;28;20033;-39
2023/01/10 05:35:24;;;;;;;42.88;4.72;;;;;;;5.77;100.00;101458.91;5033022;28;20083;-39
2023/01/10 05:37:49;;;;;;;40.25;3.90;;;;;;;5.79;100.00;101480.97;5034655;28;20040;-40
2023/01/10 05:40:15;;;;;;;37.80;4.53;;;;;;;5.78;100.00;101468.59;5037161;28;20087;-40
2023/01/10 05:42:40;;;;;;;39.72;3.78;;;;;;;5.80;100.00;101479.16;5037725;28;20029;-39
2023/01/10 05:45:06;;;;;;;38.28;4.38;;;;;;;5.80;100.00;101481.81;5036502;28;20087;-39
2023/01/10 05:47:32;;;;;;;48.20;4.07;;;;;;;5.80;100.00;101482.66;5039018;28;20495;-40
2023/01/10 05:49:57;;;;;;;42.13;4.93;;;;;;;5.79;100.00;101475.63;5043051;28;20409;-39
2023/01/10 05:52:22;;;;;;;36.25;3.78;;;;;;;5.75;100.00;101474.22;5029896;28;20053;-40
2023/01/10 05:54:48;;;;;;;35.78;3.30;;;;;;;5.74;100.00;101477.88;5037174;28;20076;-40
2023/01/10 05:57:13;;;;;;;40.53;3.67;;;;;;;5.77;100.00;101487.44;5035644;28;20037;-40
2023/01/10 05:59:38;;;;;;;59.92;5.90;;;;;;;5.77;100.00;101488.28;5038358;28;20049;-40
2023/01/10 06:02:04;;;;;;;38.00;4.28;;;;;;;5.78;100.00;101497.97;5036755;28;20033;-40
2023/01/10 06:04:29;;;;;;;44.40;4.53;;;;;;;5.76;100.00;101486.56;5029265;28;20051;-39
2023/01/10 06:06:54;;;;;;;36.90;5.22;;;;;;;5.73;100.00;101493.03;5034680;28;20262;-40
2023/01/10 06:09:20;;;;;;;56.38;4.75;;;;;;;5.73;100.00;101479.69;5034132;28;20028;-40
2023/01/10 06:11:45;;;;;;;41.67;4.25;;;;;;;5.73;100.00;101476.16;5041280;28;20025;-40
2023/01/10 06:14:10;;;;;;;37.72;3.97;;;;;;;5.74;100.00;101480.53;5030790;28;20067;-38
2023/01/10 06:16:36;;;;;;;50.08;4.57;;;;;;;5.72;100.00;101485.16;5038084;28;20409;-39
2023/01/10 06:19:01;;;;;;;47.50;4.60;;;;;;;5.70;100.00;101492.47;5033645;28;20469;-40
2023/01/10 06:21:26;;;;;;;44.03;4.65;;;;;;;5.69;100.00;101488.13;5033000;28;20555;-39
2023/01/10 06:23:52;;;;;;;41.63;4.47;;;;;;;5.67;100.00;101482.06;5037891;28;20033;-39
2023/01/10 06:26:17;;;;;;;45.97;5.50;;;;;;;5.65;100.00;101497.34;5035053;28;20033;-40
2023/01/10 06:28:43;;;;;;;39.28;4.07;;;;;;;5.62;100.00;101492.28;5039190;28;20061;-40
2023/01/10 06:31:08;;;;;;;37.35;4.28;;;;;;;5.56;100.00;101504.34;5033689;28;20108;-39
2023/01/10 06:33:34;;;;;;;44.63;4.05;;;;;;;5.55;100.00;101520.50;5040098;28;20037;-38
2023/01/10 06:35:59;;;;;;;42.47;4.78;;;;;;;5.53;100.00;101519.78;5038061;28;20021;-40
2023/01/10 06:38:25;;;;;;;41.95;4.00;;;;;;;5.54;100.00;101518.81;5029699;28;20385;-39
2023/01/10 06:40:50;;;;;;;37.33;4.63;;;;;;;5.55;100.00;101526.69;5028162;28;20029;-40
2023/01/10 06:43:15;;;;;;;57.97;4.22;;;;;;;5.58;100.00;101525.56;5030759;28;20092;-39
2023/01/10 06:45:41;;;;;;;28.20;4.50;;;;;;;5.62;100.00;101535.00;5039515;28;20107;-40
2023/01/10 06:48:06;;;;;;;35.40;3.90;;;;;;;5.70;100.00;101535.19;5029865;28;20048;-40
2023/01/10 06:50:32;;;;;;;34.40;3.85;;;;;;;5.75;100.00;101530.31;5029310;28;20018;-39
2023/01/10 06:52:58;;;;;;;41.35;4.93;;;;;;;5.79;100.00;101538.88;5035741;28;20037;-37
2023/01/10 06:55:24;;;;;;;28.45;4.15;;;;;;;5.83;100.00;101549.16;5032936;28;20419;-41
2023/01/10 06:57:57;;;;;;;33.40;3.55;;;;;;;5.91;100.00;101548.50;5027823;28;20103;-40
2023/01/10 07:00:22;;;;;;;33.05;3.92;;;;;;;6.02;100.00;101555.59;5029397;28;20049;-40
2023/01/10 07:02:48;;;;;;;40.55;5.13;;;;;;;6.13;100.00;101558.16;5033097;28;20465;-39
2023/01/10 07:05:13;;;;;;;45.88;4.15;;;;;;;6.19;100.00;101557.66;5036675;28;20075;-39
2023/01/10 07:07:38;;;;;;;40.03;5.28;;;;;;;6.24;100.00;101558.09;5052272;28;20040;-40
2023/01/10 07:10:04;;;;;;;27.40;4.05;;;;;;;6.31;100.00;101564.56;5036510;28;20060;-40
2023/01/10 07:12:30;;;;;;;41.35;4.55;;;;;;;6.33;100.00;101559.09;5031010;28;20068;-40
2023/01/10 07:14:55;;;;;;;38.15;5.43;;;;;;;6.32;100.00;101563.59;5034802;28;20079;-39
2023/01/10 07:17:20;;;;;;;39.80;4.25;;;;;;;6.32;100.00;101562.75;5050260;28;20040;-40
2023/01/10 07:19:46;;;;;;;37.30;5.53;;;;;;;6.36;100.00;101556.97;5050226;28;20067;-40
2023/01/10 07:22:11;;;;;;;38.53;3.42;;;;;;;6.38;100.00;101565.72;5033756;28;20104;-39
2023/01/10 07:24:36;;;;;;;32.17;3.67;;;;;;;6.37;100.00;101566.72;5031993;28;20124;-40
2023/01/10 07:27:02;;;;;;;33.35;3.17;;;;;;;6.35;100.00;101579.38;5032443;28;20529;-39
2023/01/10 07:29:27;;;;;;;38.85;5.63;;;;;;;6.33;100.00;101575.97;5032448;28;20468;-40
2023/01/10 07:31:53;;;;;;;31.65;3.55;;;;;;;6.30;100.00;101575.41;5043457;28;20021;-40
2023/01/10 07:34:18;;;;;;;41.00;4.97;;;;;;;6.26;100.00;101572.13;5042418;28;20131;-40
2023/01/10 07:36:43;;;;;;;30.13;4.20;;;;;;;6.25;100.00;101589.19;5034181;28;20427;-41
2023/01/10 07:39:09;;;;;;;34.35;4.18;;;;;;;6.25;100.00;101591.00;5031854;28;20037;-39
2023/01/10 07:41:34;;;;;;;28.73;3.95;;;;;;;6.20;100.00;101588.72;5039717;28;20060;-40
2023/01/10 07:44:00;;;;;;;46.45;3.78;;;;;;;6.17;100.00;101578.31;5040688;28;20370;-40
2023/01/10 07:46:25;;;;;;;34.40;4.80;;;;;;;6.12;100.00;101577.88;5032065;28;20088;-40
2023/01/10 07:48:50;;;;;;;33.05;3.92;;;;;;;6.10;100.00;101585.19;5039858;28;20127;-39
2023/01/10 07:51:16;;;;;;;41.67;3.97;;;;;;;6.08;100.00;101592.47;5048414;28;20080;-37
2023/01/10 07:53:41;;;;;;;42.05;4.40;;;;;;;6.02;100.00;101590.34;5045287;28;20052;-38
2023/01/10 07:56:07;;;;;;;48.28;5.20;;;;;;;6.03;100.00;101586.69;5040732;28;20052;-39
2023/01/10 07:58:32;;;;;;;38.17;4.75;;;;;;;5.93;100.00;101584.81;5031670;28;20025;-39
2023/01/10 08:00:59;;;;;;;44.45;4.35;;;;;;;5.82;100.00;101592.91;5039766;28;20067;-40
2023/01/10 08:03:24;;;;;;;36.42;4.05;;;;;;;5.75;100.00;101590.91;5040008;28;20477;-39
2023/01/10 08:05:57;;;;;;;48.97;4.38;;;;;;;5.65;100.00;101593.50;5046433;28;20036;-39
2023/01/10 08:08:22;;;;;;;36.92;5.72;;;;;;;5.63;100.00;101598.13;5050970;28;20507;-39
2023/01/10 08:10:47;;;;;;;46.28;5.10;;;;;;;5.58;100.00;101600.34;5038001;28;20040;-40
2023/01/10 08:13:13;;;;;;;48.10;4.20;;;;;;;5.63;100.00;101608.78;5038166;28;20329;-41
2023/01/10 08:15:38;;;;;;;40.58;4.60;;;;;;;5.60;100.00;101615.25;5043290;28;20223;-39
2023/01/10 08:18:03;;;;;;;46.03;4.93;;;;;;;5.57;100.00;101602.16;5036487;28;20110;-39
2023/01/10 08:20:29;;;;;;;39.67;4.82;;;;;;;5.59;100.00;101591.34;5031538;28;20072;-40
2023/01/10 08:22:57;;;;;;;49.20;5.28;;;;;;;5.56;100.00;101596.97;5031558;28;20036;-39
2023/01/10 08:25:23;;;;;;;35.13;4.88;;;;;;;5.55;100.00;101595.25;5031391;28;20113;-40
2023/01/10 08:27:49;;;;;;;42.20;5.20;;;;;;;5.49;100.00;101589.47;5032156;28;20137;-39
2023/01/10 08:30:15;;;;;;;38.83;4.63;;;;;;;5.51;100.00;101589.34;5030506;28;20429;-39
2023/01/10 08:32:40;;;;;;;33.33;4.68;;;;;;;5.53;100.00;101592.72;5040503;28;20029;-42
2023/01/10 08:35:06;;;;;;;39.38;4.47;;;;;;;5.58;100.00;101589.66;5042436;28;20073;-39
2023/01/10 08:37:31;;;;;;;44.47;4.97;;;;;;;5.56;100.00;101591.63;5041633;28;20052;-40
2023/01/10 08:39:56;;;;;;;39.80;4.95;;;;;;;5.48;100.00;101585.13;5039943;28;20025;-41
2023/01/10 08:42:22;;;;;;;32.13;4.32;;;;;;;5.42;100.00;101588.28;5031058;28;20028;-39
2023/01/10 08:44:47;;;;;;;39.95;4.78;;;;;;;5.38;100.00;101578.84;5029430;28;20037;-40
2023/01/10 08:47:13;;;;;;;45.13;4.60;;;;;;;5.36;100.00;101580.81;5030803;28;20021;-40
2023/01/10 08:49:38;;;;;;;38.70;5.05;;;;;;;5.33;100.00;101581.06;5031105;28;20025;-40
2023/01/10 08:52:05;;;;;;;46.00;4.82;;;;;;;5.32;100.00;101575.84;5041936;28;20025;-41
2023/01/10 08:54:31;;;;;;;34.58;4.82;;;;;;;5.34;100.00;101572.06;5044324;28;20099;-41
2023/01/10 08:56:57;;;;;;;40.67;5.30;;;;;;;5.37;100.00;101579.84;5031189;28;20453;-39
2023/01/10 08:59:22;;;;;;;40.72;4.60;;;;;;;5.37;100.00;101577.19;5044169;28;20032;-41
2023/01/10 09:01:47;;;;;;;36.45;3.50;;;;;;;5.40;100.00;101570.72;5050707;28;20392;-41
2023/01/10 09:04:13;;;;;;;37.55;4.10;;;;;;;5.40;100.00;101566.22;5030751;28;20408;-40
2023/01/10 09:06:38;;;;;;;35.75;3.90;;;;;;;5.42;100.00;101558.91;5036241;28;20071;-40
2023/01/10 09:09:04;;;;;;;37.10;4.38;;;;;;;5.43;100.00;101555.28;5032558;28;20061;-40
2023/01/10 09:11:29;;;;;;;44.13;5.18;;;;;;;5.41;100.00;101541.22;5041499;28;20021;-40
2023/01/10 09:13:54;;;;;;;39.30;4.10;;;;;;;5.40;100.00;101539.53;5049472;28;20068;-39
2023/01/10 09:16:20;;;;;;;39.70;5.20;;;;;;;5.44;100.00;101540.94;5041732;28;20090;-40
2023/01/10 09:18:45;;;;;;;47.55;5.97;;;;;;;5.43;100.00;101544.59;5035781;28;20029;-39
2023/01/10 09:21:10;;;;;;;41.63;4.78;;;;;;;5.47;100.00;101546.03;5030043;28;20056;-40
2023/01/10 09:23:37;;;;;;;41.42;4.90;;;;;;;5.55;100.00;101544.53;5030548;28;20025;-41
2023/01/10 09:26:02;;;;;;;35.17;5.00;;;;;;;5.62;100.00;101548.38;5028332;28;20034;-39
2023/01/10 09:28:28;;;;;;;41.42;4.70;;;;;;;5.63;100.00;101548.22;5030360;28;20491;-41
2023/01/10 09:30:53;;;;;;;43.15;4.82;;;;;;;5.67;100.00;101543.47;5030359;28;20076;-39
2023/01/10 09:33:18;;;;;;;38.70;5.88;;;;;;;5.59;100.00;101549.47;5039363;28;20075;-39
2023/01/10 09:35:44;;;;;;;32.40;4.20;;;;;;;5.55;100.00;101557.88;5045490;28;20029;-40
2023/01/10 09:38:15;;;;;;;41.30;4.85;;;;;;;5.56;100.00;101559.59;5030519;28;20033;-40
2023/01/10 09:41:08;;;;;;;41.50;4.47;;;;;;;5.55;100.00;101563.22;5030531;28;20103;-40
2023/01/10 09:43:36;;;;;;;38.17;4.50;;;;;;;5.60;100.00;101555.66;5028547;28;20033;-37
2023/01/10 09:46:17;;;;;;;50.00;5.03;;;;;;;5.59;100.00;101570.84;5030057;28;20088;-40
2023/01/10 09:48:51;;;;;;;42.08;5.35;;;;;;;5.59;100.00;101559.31;5030274;28;20072;-40
2023/01/10 09:51:38;;;;;;;32.35;4.40;;;;;;;5.62;100.00;101556.38;5030237;28;20036;-41
2023/01/10 09:54:09;;;;;;;33.90;4.57;;;;;;;5.63;100.00;101560.72;5041878;28;20037;-40
2023/01/10 09:56:34;;;;;;;37.97;4.22;;;;;;;5.64;100.00;101541.06;5036736;28;20079;-40
2023/01/10 09:59:01;;;;;;;38.17;3.90;;;;;;;5.63;100.00;101539.38;5028595;28;20072;-39
2023/01/10 10:01:35;;;;;;;35.05;4.47;;;;;;;5.62;100.00;101537.69;5029801;28;20025;-39
2023/01/10 10:04:13;;;;;;;41.75;4.97;;;;;;;5.65;100.00;101532.06;5029199;28;20032;-39
2023/01/10 10:06:39;;;;;;;35.92;4.32;;;;;;;5.67;100.00;101536.31;5029739;28;20075;-40
2023/01/10 10:09:04;;;;;;;34.05;5.13;;;;;;;5.68;100.00;101539.81;5029834;28;20107;-40
2023/01/10 10:11:30;;;;;;;43.28;4.78;;;;;;;5.68;100.00;101521.13;5029945;28;20021;-39
2023/01/10 10:14:14;;;;;;;48.08;5.22;;;;;;;5.68;100.00;101527.31;5030077;28;20473;-40
2023/01/10 10:16:39;;;;;;;34.95;4.32;;;;;;;5.63;100.00;101526.84;5044274;28;20021;-40
2023/01/10 10:19:18;;;;;;;40.20;4.70;;;;;;;5.66;100.00;101533.75;5041429;28;20031;-40
2023/01/10 10:21:58;;;;;;;41.70;4.43;;;;;;;5.55;100.00;101524.00;5040522;28;20022;-40
2023/01/10 10:24:46;;;;;;;36.33;4.63;;;;;;;5.54;100.00;101513.47;5031356;28;20041;-40
2023/01/10 10:27:22;;;;;;;26.52;4.25;;;;;;;5.59;100.00;101521.94;5029290;28;20131;-41
2023/01/10 10:30:14;;;;;;;42.85;4.85;;;;;;;5.54;100.00;101513.47;5029699;28;20163;-40
2023/01/10 10:33:21;;;;;;;40.85;5.40;;;;;;;5.55;100.00;101515.16;5029769;28;20423;-41
2023/01/10 10:35:54;;;;;;;25.87;4.77;;;;;;;5.49;100.00;101506.69;5031596;28;20045;-41
2023/01/10 10:38:25;;;;;;;33.58;4.57;;;;;;;5.50;100.00;101496.84;5033706;28;20496;-41
2023/01/10 10:40:51;;;;;;;28.48;4.22;;;;;;;5.42;100.00;101497.50;5041367;28;20041;-40
2023/01/10 10:43:20;;;;;;;37.75;4.35;;;;;;;5.43;100.00;101479.69;5051507;28;20356;-41
2023/01/10 10:46:18;;;;;;;23.50;4.40;;;;;;;5.42;100.00;101473.50;5044380;28;20021;-42
2023/01/10 10:49:12;;;;;;;43.63;4.75;;;;;;;5.45;100.00;101462.56;5028766;28;20049;-39
2023/01/10 10:51:46;;;;;;;37.47;4.85;;;;;;;5.53;100.00;101463.72;5032979;28;20492;-39
2023/01/10 10:54:15;;;;;;;27.95;4.30;;;;;;;5.55;100.00;101457.25;5031664;28;20459;-40
2023/01/10 10:56:41;;;;;;;33.63;4.35;;;;;;;5.58;100.00;101451.66;5033062;28;20032;-41
2023/01/10 10:59:07;;;;;;;39.10;4.47;;;;;;;5.63;100.00;101456.59;5034647;28;20029;-40
2023/01/10 11:01:32;;;;;;;43.00;5.32;;;;;;;5.62;100.00;101460.25;5046169;28;20444;-40
2023/01/10 11:04:04;;;;;;;39.28;5.55;;;;;;;5.66;100.00;101453.63;5041833;28;20021;-41
2023/01/10 11:06:31;;;;;;;30.17;4.07;;;;;;;5.70;100.00;101449.72;5046799;28;20472;-41
2023/01/10 11:09:00;;;;;;;37.60;5.40;;;;;;;5.71;100.00;101451.41;5049008;28;20037;-40
2023/01/10 11:11:33;;;;;;;31.38;4.57;;;;;;;5.82;100.00;101437.97;5048459;28;20044;-40
2023/01/10 11:14:03;;;;;;;34.80;4.22;;;;;;;5.79;100.00;101437.38;5031343;28;20533;-41
2023/01/10 11:16:35;;;;;;;34.90;4.53;;;;;;;5.79;100.00;101432.03;5033030;28;20033;-41
2023/01/10 11:19:16;;;;;;;25.90;4.30;;;;;;;5.89;100.00;101428.41;5039262;28;20037;-40
2023/01/10 11:21:45;;;;;;;28.33;4.15;;;;;;;5.96;100.00;101435.94;5047917;28;20025;-40
2023/01/10 11:24:26;;;;;;;40.85;4.60;;;;;;;5.97;100.00;101427.75;5032372;28;20376;-40
2023/01/10 11:26:52;;;;;;;36.95;4.88;;;;;;;5.97;100.00;101426.91;5032756;28;20029;-39
2023/01/10 11:29:26;;;;;;;32.22;4.22;;;;;;;5.94;100.00;101430.72;5033064;28;20384;-40
2023/01/10 11:31:53;;;;;;;37.72;4.53;;;;;;;5.99;100.00;101423.13;5031879;28;20041;-40
2023/01/10 11:34:29;;;;;;;32.13;4.88;;;;;;;5.97;100.00;101418.91;5032200;28;20049;-40